createdAt,value
2018-09-29T00:02:24.465Z,64.60
2018-09-29T00:04:56.272Z,64.70
2018-09-29T00:07:31.705Z,64.70
2018-09-29T00:10:14.547Z,64.50
2018-09-29T00:12:47.616Z,64.70
2018-09-29T00:15:22.752Z,65.20
2018-09-29T00:18:00.294Z,65.40
2018-09-29T00:20:31.437Z,65.30
2018-09-29T00:23:05.616Z,65.40
2018-09-29T00:25:42.691Z,65.60
2018-09-29T00:28:21.141Z,65.60
2018-09-29T00:30:56.550Z,65.60
2018-09-29T00:33:33.269Z,65.50
2018-09-29T00:36:12.534Z,65.30
2018-09-29T00:38:50.975Z,65.30
2018-09-29T00:41:22.733Z,65.30
2018-09-29T00:43:59.267Z,66.20
2018-09-29T00:46:36.495Z,65.50
2018-09-29T00:49:11.527Z,65.60
2018-09-29T00:51:51.375Z,65.60
2018-09-29T00:54:27.556Z,65.40
2018-09-29T00:57:08.023Z,65.70
2018-09-29T00:59:50.121Z,65.60
2018-09-29T01:02:34.575Z,65.60
2018-09-29T01:05:16.580Z,65.50
2018-09-29T01:07:57.843Z,65.50
2018-09-29T01:10:47.416Z,65.60
2018-09-29T01:13:24.704Z,65.50
2018-09-29T01:15:57.795Z,65.60
2018-09-29T01:18:36.005Z,65.80
2018-09-29T01:21:15.191Z,65.80
2018-09-29T01:23:52.069Z,65.90
2018-09-29T01:26:31.558Z,65.90
2018-09-29T01:29:16.421Z,66.10
2018-09-29T01:31:56.478Z,65.90
2018-09-29T01:34:34.685Z,65.90
2018-09-29T01:37:10.028Z,65.70
2018-09-29T01:39:44.961Z,66.00
2018-09-29T01:42:20.099Z,66.10
2018-09-29T01:45:00.461Z,66.00
2018-09-29T01:47:36.888Z,66.10
2018-09-29T01:50:12.682Z,66.10
2018-09-29T01:52:46.293Z,66.00
2018-09-29T01:55:20.602Z,66.10
2018-09-29T01:57:54.950Z,66.30
2018-09-29T02:00:30.392Z,66.30
2018-09-29T02:03:08.565Z,66.30
2018-09-29T02:05:45.148Z,66.30
2018-09-29T02:08:18.158Z,66.40
2018-09-29T02:10:52.153Z,66.40
2018-09-29T02:13:27.491Z,66.60
2018-09-29T02:16:02.015Z,66.50
2018-09-29T02:18:36.742Z,66.60
2018-09-29T02:21:15.363Z,66.70
2018-09-29T02:23:51.420Z,66.70
2018-09-29T02:26:25.027Z,66.60
2018-09-29T02:28:58.558Z,66.70
2018-09-29T02:31:29.667Z,66.70
2018-09-29T02:34:02.152Z,66.80
2018-09-29T02:36:36.564Z,66.60
2018-09-29T02:39:17.742Z,66.70
2018-09-29T02:41:55.135Z,66.60
2018-09-29T02:44:27.502Z,66.70
2018-09-29T02:47:01.409Z,66.90
2018-09-29T02:49:38.764Z,66.90
2018-09-29T02:52:14.447Z,66.80
2018-09-29T02:54:47.343Z,66.90
2018-09-29T02:57:20.208Z,66.80
2018-09-29T02:59:58.205Z,66.80
2018-09-29T03:02:39.288Z,66.90
2018-09-29T03:05:13.913Z,66.90
2018-09-29T03:07:48.207Z,67.10
2018-09-29T03:10:21.725Z,67.10
2018-09-29T03:12:58.941Z,66.90
2018-09-29T03:15:33.124Z,66.80
2018-09-29T03:18:08.789Z,66.80
2018-09-29T03:20:41.454Z,66.80
2018-09-29T03:23:18.285Z,67.40
2018-09-29T03:25:52.433Z,66.80
2018-09-29T03:28:26.797Z,67.30
2018-09-29T03:31:04.396Z,66.60
2018-09-29T03:33:40.810Z,67.40
2018-09-29T03:36:14.615Z,67.10
2018-09-29T03:38:47.660Z,66.30
2018-09-29T03:41:20.381Z,66.20
2018-09-29T03:43:53.531Z,66.20
2018-09-29T03:46:27.845Z,66.10
2018-09-29T03:49:00.536Z,66.10
2018-09-29T03:51:35.397Z,66.10
2018-09-29T03:54:08.899Z,66.30
2018-09-29T03:56:41.030Z,66.50
2018-09-29T03:59:14.428Z,66.50
2018-09-29T04:01:47.007Z,66.50
2018-09-29T04:04:22.962Z,66.70
2018-09-29T04:06:54.721Z,66.90
2018-09-29T04:09:27.730Z,66.90
2018-09-29T04:11:59.487Z,66.70
2018-09-29T04:14:33.683Z,66.60
2018-09-29T04:17:04.740Z,66.80
2018-09-29T04:19:35.777Z,66.80
2018-09-29T04:22:07.218Z,66.80
2018-09-29T04:24:39.306Z,67.00
2018-09-29T04:27:14.679Z,67.10
2018-09-29T04:29:48.409Z,66.90
2018-09-29T04:32:19.831Z,67.10
2018-09-29T04:35:00.140Z,67.20
2018-09-29T04:37:32.927Z,67.10
2018-09-29T04:40:08.895Z,67.40
2018-09-29T04:42:41.758Z,67.40
2018-09-29T04:45:16.599Z,67.50
2018-09-29T04:47:51.416Z,67.40
2018-09-29T04:50:25.221Z,67.50
2018-09-29T04:52:57.797Z,67.70
2018-09-29T04:55:28.960Z,67.90
2018-09-29T04:58:05.203Z,67.80
2018-09-29T05:00:36.549Z,67.80
2018-09-29T05:03:08.027Z,67.60
2018-09-29T05:05:42.320Z,67.60
2018-09-29T05:08:15.134Z,67.70
2018-09-29T05:10:47.909Z,67.50
2018-09-29T05:13:21.887Z,67.50
2018-09-29T05:15:53.225Z,67.60
2018-09-29T05:18:29.128Z,67.60
2018-09-29T05:21:04.979Z,67.50
2018-09-29T05:23:39.052Z,67.30
2018-09-29T05:26:12.860Z,67.30
2018-09-29T05:28:43.385Z,67.30
2018-09-29T05:31:19.185Z,67.40
2018-09-29T05:33:52.677Z,67.30
2018-09-29T05:36:29.561Z,67.30
2018-09-29T05:39:08.286Z,67.40
2018-09-29T05:41:44.780Z,67.40
2018-09-29T05:44:16.864Z,67.70
2018-09-29T05:46:49.905Z,67.90
2018-09-29T05:49:28.907Z,68.20
2018-09-29T05:52:02.642Z,67.90
2018-09-29T05:54:44.170Z,68.00
2018-09-29T05:57:18.244Z,68.10
2018-09-29T05:59:51.641Z,68.40
2018-09-29T06:02:28.107Z,68.60
2018-09-29T06:05:03.755Z,68.60
2018-09-29T06:07:38.126Z,68.80
2018-09-29T06:10:11.988Z,68.80
2018-09-29T06:12:45.526Z,69.10
2018-09-29T06:15:19.501Z,69.20
2018-09-29T06:17:51.032Z,69.30
2018-09-29T06:20:31.855Z,69.20
2018-09-29T06:23:02.049Z,69.30
2018-09-29T06:25:33.419Z,69.30
2018-09-29T06:28:08.297Z,69.40
2018-09-29T06:30:43.159Z,69.70
2018-09-29T06:33:15.455Z,69.80
2018-09-29T06:35:51.387Z,70.10
2018-09-29T06:38:25.705Z,70.20
2018-09-29T06:41:00.847Z,70.20
2018-09-29T06:43:33.608Z,70.50
2018-09-29T06:46:05.903Z,70.40
2018-09-29T06:48:39.192Z,70.70
2018-09-29T06:51:11.457Z,69.50
2018-09-29T06:53:52.234Z,69.20
2018-09-29T06:56:28.883Z,69.00
2018-09-29T06:59:00.766Z,69.10
2018-09-29T07:01:38.341Z,68.90
2018-09-29T07:04:12.340Z,68.60
2018-09-29T07:06:45.160Z,68.60
2018-09-29T07:11:57.175Z,68.10
2018-09-29T07:14:28.107Z,68.80
2018-09-29T07:16:59.928Z,69.00
2018-09-29T07:19:31.632Z,69.10
2018-09-29T07:22:19.263Z,69.30
2018-09-29T07:24:55.117Z,69.80
2018-09-29T07:27:27.348Z,69.90
2018-09-29T07:30:09.531Z,69.80
2018-09-29T07:32:48.149Z,70.20
2018-09-29T07:35:22.795Z,70.30
2018-09-29T07:37:58.577Z,70.50
2018-09-29T07:40:29.076Z,70.90
2018-09-29T07:43:01.878Z,70.70
2018-09-29T07:45:32.121Z,70.40
2018-09-29T07:48:02.406Z,70.50
2018-09-29T07:50:33.617Z,70.70
2018-09-29T07:53:04.559Z,70.50
2018-09-29T07:55:36.360Z,70.50
2018-09-29T07:58:07.296Z,70.30
2018-09-29T08:00:40.080Z,70.30
2018-09-29T08:03:11.925Z,70.10
2018-09-29T08:05:43.224Z,70.00
2018-09-29T08:08:15.021Z,70.00
2018-09-29T08:10:49.169Z,69.80
2018-09-29T08:13:20.426Z,69.80
2018-09-29T08:15:50.700Z,69.60
2018-09-29T08:18:21.953Z,69.70
2018-09-29T08:20:53.519Z,69.80
2018-09-29T08:23:24.932Z,69.70
2018-09-29T08:26:02.022Z,69.20
2018-09-29T08:28:34.069Z,69.50
2018-09-29T08:31:12.205Z,70.00
2018-09-29T08:33:47.673Z,70.10
2018-09-29T08:36:22.261Z,70.10
2018-09-29T08:39:02.432Z,70.40
2018-09-29T08:41:33.744Z,70.20
2018-09-29T08:44:08.688Z,70.50
2018-09-29T08:46:40.637Z,69.90
2018-09-29T08:49:16.916Z,69.70
2018-09-29T08:51:48.777Z,69.30
2018-09-29T08:54:20.332Z,69.90
2018-09-29T08:57:01.206Z,69.90
2018-09-29T08:59:44.047Z,70.20
2018-09-29T09:02:25.920Z,70.40
2018-09-29T09:05:02.014Z,70.30
2018-09-29T09:07:36.447Z,70.50
2018-09-29T09:10:33.857Z,70.60
2018-09-29T09:13:18.156Z,70.20
2018-09-29T09:15:53.149Z,69.20
2018-09-29T09:18:33.807Z,68.80
2018-09-29T09:21:20.207Z,68.40
2018-09-29T09:23:54.530Z,68.10
2018-09-29T09:26:26.792Z,67.80
2018-09-29T09:28:56.299Z,67.60
2018-09-29T09:31:25.861Z,67.70
2018-09-29T09:33:55.368Z,67.20
2018-09-29T09:36:24.715Z,67.10
2018-09-29T09:38:54.666Z,66.70
2018-09-29T09:41:24.014Z,66.50
2018-09-29T09:43:53.488Z,66.40
2018-09-29T09:46:22.947Z,66.30
2018-09-29T09:48:52.366Z,66.20
2018-09-29T09:51:21.944Z,66.10
2018-09-29T09:53:51.313Z,66.10
2018-09-29T09:56:20.749Z,65.80
2018-09-29T09:58:50.672Z,65.80
2018-09-29T10:02:28.767Z,66.30
2018-09-29T10:04:58.344Z,66.60
2018-09-29T10:07:27.715Z,67.10
2018-09-29T10:09:57.113Z,67.10
2018-09-29T10:12:26.520Z,66.40
2018-09-29T10:14:56.028Z,66.50
2018-09-29T10:17:25.401Z,66.40
2018-09-29T10:19:54.876Z,66.20
2018-09-29T10:22:24.248Z,65.80
2018-09-29T10:24:53.697Z,65.40
2018-09-29T10:27:23.043Z,65.40
2018-09-29T10:29:52.488Z,65.20
2018-09-29T10:32:21.976Z,64.80
2018-09-29T10:34:51.352Z,65.00
2018-09-29T10:37:20.797Z,64.70
2018-09-29T10:39:50.224Z,64.40
2018-09-29T10:42:19.668Z,65.10
2018-09-29T10:44:49.151Z,64.40
2018-09-29T10:47:18.547Z,63.50
2018-09-29T10:49:48.078Z,63.90
2018-09-29T10:52:17.481Z,64.00
2018-09-29T10:54:47.415Z,64.10
2018-09-29T10:57:16.900Z,64.40
2018-09-29T10:59:46.560Z,64.50
2018-09-29T11:02:15.954Z,64.60
2018-09-29T11:04:45.385Z,64.80
2018-09-29T11:07:14.893Z,65.50
2018-09-29T11:09:44.255Z,66.00
2018-09-29T11:12:13.656Z,65.50
2018-09-29T11:14:43.144Z,65.30
2018-09-29T11:17:12.528Z,65.10
2018-09-29T11:19:42.185Z,65.60
2018-09-29T11:22:11.599Z,65.90
2018-09-29T11:24:41.101Z,66.60
2018-09-29T11:27:10.721Z,66.40
2018-09-29T11:29:40.114Z,66.30
2018-09-29T11:32:09.500Z,66.50
2018-09-29T11:34:38.963Z,66.30
2018-09-29T11:37:08.412Z,66.80
2018-09-29T11:39:37.848Z,66.50
2018-09-29T11:42:07.254Z,66.60
2018-09-29T11:44:36.778Z,67.00
2018-09-29T11:47:06.293Z,67.70
2018-09-29T11:49:35.688Z,67.80
2018-09-29T11:52:05.048Z,67.70
2018-09-29T11:54:34.413Z,67.70
2018-09-29T11:57:03.816Z,67.60
2018-09-29T11:59:33.339Z,67.80
2018-09-29T12:02:02.767Z,68.00
2018-09-29T12:04:32.145Z,68.30
2018-09-29T12:07:01.583Z,68.70
2018-09-29T12:09:30.982Z,68.70
2018-09-29T12:12:00.493Z,68.70
2018-09-29T12:14:29.879Z,68.50
2018-09-29T12:16:59.925Z,68.30
2018-09-29T12:19:29.350Z,69.00
2018-09-29T12:21:58.723Z,69.00
2018-09-29T12:24:28.161Z,69.80
2018-09-29T12:26:57.603Z,69.20
2018-09-29T12:29:26.989Z,69.20
2018-09-29T12:31:56.444Z,69.00
2018-09-29T12:34:25.925Z,68.60
2018-09-29T12:36:55.408Z,68.40
2018-09-29T12:39:24.842Z,68.60
2018-09-29T12:41:54.231Z,68.40
2018-09-29T12:44:23.630Z,68.20
2018-09-29T12:46:53.082Z,68.00
2018-09-29T12:49:22.778Z,67.80
2018-09-29T12:51:52.221Z,67.80
2018-09-29T12:54:21.796Z,67.80
2018-09-29T12:56:51.192Z,68.10
2018-09-29T12:59:20.648Z,68.10
2018-09-29T13:01:50.394Z,68.00
2018-09-29T13:04:19.799Z,68.10
2018-09-29T13:06:49.180Z,68.10
2018-09-29T13:09:18.540Z,68.50
2018-09-29T13:11:47.888Z,68.50
2018-09-29T13:14:17.345Z,68.70
2018-09-29T13:16:46.770Z,69.00
2018-09-29T13:19:16.197Z,69.50
2018-09-29T13:21:45.653Z,69.80
2018-09-29T13:24:15.047Z,70.20
2018-09-29T13:26:44.482Z,70.30
2018-09-29T13:29:13.940Z,70.70
2018-09-29T13:31:43.328Z,70.80
2018-09-29T13:34:12.803Z,70.80
2018-09-29T13:36:42.176Z,70.80
2018-09-29T13:39:11.627Z,70.70
2018-09-29T13:41:41.036Z,70.80
2018-09-29T13:44:10.352Z,71.30
2018-09-29T13:46:39.761Z,71.10
2018-09-29T13:49:09.258Z,71.80
2018-09-29T13:51:38.702Z,72.00
2018-09-29T13:54:08.073Z,72.10
2018-09-29T13:56:37.504Z,72.20
2018-09-29T13:59:07.046Z,72.60
2018-09-29T14:01:36.465Z,72.40
2018-09-29T14:04:05.828Z,72.30
2018-09-29T14:06:35.243Z,72.50
2018-09-29T14:09:05.748Z,72.60
2018-09-29T14:11:35.097Z,73.00
2018-09-29T14:14:04.924Z,73.20
2018-09-29T14:16:34.336Z,73.20
2018-09-29T14:19:03.774Z,73.00
2018-09-29T14:21:33.203Z,73.00
2018-09-29T14:24:02.956Z,72.50
2018-09-29T14:26:32.352Z,72.90
2018-09-29T14:29:01.752Z,72.80
2018-09-29T14:31:31.140Z,72.90
2018-09-29T14:34:00.508Z,73.00
2018-09-29T14:36:29.948Z,73.20
2018-09-29T14:38:59.441Z,73.60
2018-09-29T14:41:28.805Z,74.00
2018-09-29T14:43:58.242Z,73.30
2018-09-29T14:46:27.620Z,73.10
2018-09-29T14:48:57.071Z,73.40
2018-09-29T14:51:26.487Z,73.60
2018-09-29T14:53:55.898Z,73.80
2018-09-29T14:56:25.299Z,73.70
2018-09-29T14:58:54.705Z,73.80
2018-09-29T15:01:24.089Z,73.60
2018-09-29T15:03:53.450Z,73.70
2018-09-29T15:06:22.869Z,73.40
2018-09-29T15:08:52.262Z,73.20
2018-09-29T15:11:21.688Z,73.40
2018-09-29T15:13:51.195Z,73.60
2018-09-29T15:16:20.651Z,73.70
2018-09-29T15:18:50.043Z,73.80
2018-09-29T15:21:19.500Z,73.50
2018-09-29T15:23:48.861Z,73.40
2018-09-29T15:26:18.273Z,73.70
2018-09-29T15:28:47.747Z,73.40
2018-09-29T15:31:17.183Z,72.80
2018-09-29T15:33:46.521Z,72.60
2018-09-29T15:36:15.897Z,72.60
2018-09-29T15:38:45.272Z,73.10
2018-09-29T15:41:14.671Z,73.20
2018-09-29T15:43:44.116Z,72.80
2018-09-29T15:46:13.480Z,72.90
2018-09-29T15:48:42.878Z,72.80
2018-09-29T15:51:12.261Z,72.80
2018-09-29T15:53:41.639Z,73.00
2018-09-29T15:56:10.981Z,73.00
2018-09-29T15:58:40.399Z,72.80
2018-09-29T16:01:09.766Z,72.70
2018-09-29T16:03:39.189Z,72.80
2018-09-29T16:06:08.562Z,72.60
2018-09-29T16:08:37.973Z,72.80
2018-09-29T16:11:07.631Z,73.10
2018-09-29T16:13:37.105Z,73.30
2018-09-29T16:16:06.484Z,73.50
2018-09-29T16:18:35.928Z,73.50
2018-09-29T16:21:05.426Z,73.10
2018-09-29T16:23:34.880Z,73.10
2018-09-29T16:26:05.123Z,73.40
2018-09-29T16:28:34.551Z,73.50
2018-09-29T16:31:04.010Z,73.70
2018-09-29T16:33:33.400Z,73.60
2018-09-29T16:36:02.880Z,74.50
2018-09-29T16:38:32.439Z,73.90
2018-09-29T16:41:02.518Z,74.10
2018-09-29T16:43:31.989Z,74.40
2018-09-29T16:46:01.514Z,74.30
2018-09-29T16:48:31.140Z,74.90
2018-09-29T16:51:00.704Z,73.80
2018-09-29T16:53:30.191Z,73.70
2018-09-29T16:55:59.772Z,73.90
2018-09-29T16:58:29.292Z,73.90
2018-09-29T17:01:04.969Z,74.10
2018-09-29T17:03:34.551Z,73.60
2018-09-29T17:06:04.090Z,73.70
2018-09-29T17:08:33.593Z,74.10
2018-09-29T17:11:02.966Z,74.40
2018-09-29T17:13:32.605Z,74.50
2018-09-29T17:16:02.437Z,75.70
2018-09-29T17:18:31.933Z,77.00
2018-09-29T17:21:02.100Z,76.10
2018-09-29T17:23:31.709Z,76.90
2018-09-29T17:26:01.104Z,77.80
2018-09-29T17:28:30.513Z,76.60
2018-09-29T17:31:00.150Z,77.80
2018-09-29T17:33:29.701Z,76.00
2018-09-29T17:35:59.349Z,75.60
2018-09-29T17:38:28.888Z,76.40
2018-09-29T17:40:58.356Z,76.80
2018-09-29T17:43:27.884Z,77.30
2018-09-29T17:45:57.452Z,77.60
2018-09-29T17:48:26.910Z,77.40
2018-09-29T17:50:56.451Z,77.20
2018-09-29T17:53:25.877Z,77.60
2018-09-29T17:55:55.308Z,77.70
2018-09-29T17:58:24.709Z,77.10
2018-09-29T18:00:54.111Z,77.10
2018-09-29T18:03:23.545Z,77.50
2018-09-29T18:05:52.977Z,77.00
2018-09-29T18:08:22.401Z,77.30
2018-09-29T18:10:51.816Z,77.50
2018-09-29T18:13:21.361Z,78.10
2018-09-29T18:15:50.907Z,77.70
2018-09-29T18:18:20.329Z,78.20
2018-09-29T18:20:49.751Z,77.80
2018-09-29T18:23:19.268Z,77.40
2018-09-29T18:25:48.734Z,77.90
2018-09-29T18:28:18.248Z,77.60
2018-09-29T18:30:47.836Z,77.90
2018-09-29T18:33:17.227Z,77.40
2018-09-29T18:35:46.711Z,77.70
2018-09-29T18:38:16.136Z,77.80
2018-09-29T18:40:45.500Z,78.20
2018-09-29T18:43:19.315Z,78.80
2018-09-29T18:45:48.748Z,78.50
2018-09-29T18:48:18.159Z,78.20
2018-09-29T18:50:47.568Z,77.60
2018-09-29T18:53:16.926Z,77.70
2018-09-29T18:55:46.340Z,77.70
2018-09-29T18:58:15.754Z,77.80
2018-09-29T19:00:45.177Z,77.60
2018-09-29T19:03:14.795Z,77.20
2018-09-29T19:05:44.221Z,76.80
2018-09-29T19:08:13.561Z,77.40
2018-09-29T19:10:42.988Z,78.10
2018-09-29T19:13:12.343Z,78.20
2018-09-29T19:15:43.720Z,77.40
2018-09-29T19:18:13.156Z,78.00
2018-09-29T19:20:42.768Z,77.20
2018-09-29T19:23:13.293Z,76.50
2018-09-29T19:25:42.740Z,76.60
2018-09-29T19:28:18.041Z,76.50
2018-09-29T19:30:47.492Z,76.20
2018-09-29T19:33:16.946Z,76.10
2018-09-29T19:35:46.419Z,76.10
2018-09-29T19:38:15.897Z,76.40
2018-09-29T19:40:45.264Z,76.10
2018-09-29T19:43:14.764Z,75.90
2018-09-29T19:45:44.183Z,76.00
2018-09-29T19:48:13.589Z,76.00
2018-09-29T19:50:43.010Z,76.40
2018-09-29T19:53:12.473Z,76.50
2018-09-29T19:55:41.963Z,76.40
2018-09-29T19:58:11.447Z,75.60
2018-09-29T20:00:40.905Z,75.20
2018-09-29T20:03:10.415Z,75.60
2018-09-29T20:05:40.124Z,75.70
2018-09-29T20:08:09.663Z,75.90
2018-09-29T20:10:39.058Z,75.70
2018-09-29T20:13:08.596Z,75.40
2018-09-29T20:15:38.025Z,75.60
2018-09-29T20:18:07.970Z,75.50
2018-09-29T20:20:37.465Z,75.40
2018-09-29T20:23:07.032Z,75.60
2018-09-29T20:25:36.425Z,75.60
2018-09-29T20:28:05.892Z,75.40
2018-09-29T20:30:35.357Z,75.50
2018-09-29T20:33:04.856Z,75.40
2018-09-29T20:35:34.193Z,75.70
2018-09-29T20:38:03.544Z,75.70
2018-09-29T20:40:32.951Z,75.30
2018-09-29T20:43:08.777Z,75.70
2018-09-29T20:45:38.925Z,75.20
2018-09-29T20:48:08.359Z,75.30
2018-09-29T20:50:37.912Z,75.60
2018-09-29T20:53:07.329Z,75.50
2018-09-29T20:55:36.740Z,75.20
2018-09-29T20:58:06.306Z,75.20
2018-09-29T21:00:35.715Z,75.30
2018-09-29T21:03:05.245Z,75.50
2018-09-29T21:05:34.647Z,75.40
2018-09-29T21:08:04.207Z,75.60
2018-09-29T21:10:33.624Z,75.00
2018-09-29T21:13:03.045Z,75.20
2018-09-29T21:15:32.472Z,75.30
2018-09-29T21:18:01.854Z,75.30
2018-09-29T21:20:31.229Z,75.20
2018-09-29T21:23:00.985Z,75.10
2018-09-29T21:25:30.490Z,75.40
2018-09-29T21:27:59.998Z,75.60
2018-09-29T21:30:29.846Z,75.40
2018-09-29T21:32:59.225Z,75.60
2018-09-29T21:35:28.616Z,75.50
2018-09-29T21:37:58.056Z,75.40
2018-09-29T21:40:29.950Z,75.20
2018-09-29T21:42:59.363Z,75.10
2018-09-29T21:45:28.790Z,75.20
2018-09-29T21:47:58.165Z,74.80
2018-09-29T21:50:27.628Z,74.90
2018-09-29T21:52:57.497Z,75.00
2018-09-29T21:55:26.961Z,74.60
2018-09-29T21:57:56.388Z,74.40
2018-09-29T22:00:30.854Z,74.60
2018-09-29T22:03:00.285Z,75.00
2018-09-29T22:05:29.668Z,74.80
2018-09-29T22:07:59.057Z,74.70
2018-09-29T22:10:28.512Z,74.60
2018-09-29T22:12:57.940Z,74.70
2018-09-29T22:15:27.294Z,74.90
2018-09-29T22:17:56.768Z,74.60
2018-09-29T22:20:26.143Z,74.50
2018-09-29T22:22:55.528Z,74.70
2018-09-29T22:25:24.996Z,74.40
2018-09-29T22:27:54.688Z,74.40
2018-09-29T22:30:24.053Z,74.40
2018-09-29T22:32:53.463Z,74.30
2018-09-29T22:35:22.864Z,74.40
2018-09-29T22:37:52.241Z,74.30
2018-09-29T22:40:21.620Z,74.40
2018-09-29T22:42:50.972Z,74.30
2018-09-29T22:45:20.752Z,75.00
2018-09-29T22:47:50.103Z,74.30
2018-09-29T22:50:19.548Z,74.20
2018-09-29T22:52:48.961Z,74.50
2018-09-29T22:55:18.324Z,74.30
2018-09-29T22:57:47.735Z,74.30
2018-09-29T23:00:17.097Z,74.30
2018-09-29T23:02:46.469Z,74.30
2018-09-29T23:05:15.921Z,74.30
2018-09-29T23:07:45.354Z,74.30
2018-09-29T23:10:14.760Z,74.30
2018-09-29T23:12:44.123Z,74.10
2018-09-29T23:15:13.444Z,74.30
2018-09-29T23:17:42.792Z,74.20
2018-09-29T23:20:12.209Z,74.30
2018-09-29T23:22:41.536Z,74.20
2018-09-29T23:25:10.895Z,74.20
2018-09-29T23:27:40.273Z,74.20
2018-09-29T23:30:09.684Z,74.80
2018-09-29T23:32:39.155Z,74.30
2018-09-29T23:35:08.597Z,74.40
2018-09-29T23:37:38.048Z,74.20
2018-09-29T23:40:07.519Z,74.10
2018-09-29T23:42:36.953Z,74.20
2018-09-29T23:45:06.459Z,74.50
2018-09-29T23:47:35.822Z,74.20
2018-09-29T23:50:05.507Z,74.30
2018-09-29T23:52:34.841Z,74.10
2018-09-29T23:55:04.305Z,74.10
2018-09-29T23:57:33.648Z,74.50
